Observations for CAMBRIDGE, United Kingdom (EGSC)

EGSC 111750Z 14004KT 8000 NSC 03/01 Q1024   
EGSC 111720Z 13003KT 7000 NSC 03/02 Q1024   
EGSC 111650Z 14004KT 7000 NSC 03/02 Q1023   
EGSC 111620Z 14003KT 8000 NSC 04/03 Q1024   
EGSC 111550Z 14002KT 8000 FEW022 04/03 Q1024
EGSC 111520Z 15004KT 8000 FEW020 05/03 Q1024
EGSC 111450Z 16004KT 9000 FEW020 07/04 Q1024
EGSC 111420Z 16005KT 9000 FEW020 08/05 Q1024
EGSC 111350Z 15006KT 9000 FEW015 08/05 Q1024
EGSC 111320Z 16007KT 9000 FEW024 08/05 Q1024
EGSC 111250Z 16006KT 9000 FEW024 08/05 Q1025
EGSC 111220Z 16005KT 9000 FEW020 08/05 Q1025
EGSC 111150Z 16005KT 9000 FEW020 07/05 Q1025
EGSC 111120Z 16004KT 8000 NSC 07/05 Q1025   
EGSC 111050Z 17004KT 7000 NSC 06/04 Q1025   
EGSC 111020Z 15004KT 6000 NSC 04/04 Q1026   
EGSC 110950Z VRB01KT 6000 NSC 04/03 Q1026   
EGSC 110920Z VRB01KT 4200 R23/P2000 MIFG NSC 02/01 Q1026
EGSC 110850Z 11001KT 4200 R23/P2000 MIFG NSC 02/01 Q1026
EGSC 110820Z 00000KT 6000 R23/0500 MIFG NSC 02/01 Q1026 
EGSC 110750Z VRB01KT 6000 R23/0500 MIFG NSC 02/01 Q1026